Time;durP1;ratioP1;P1;durP2;ratioP2;P2;SDS_P1;SDS_P2;PMS_P1;PMS_P2;Temp;Humidity;BMP_temperature;BMP_pressure;BME280_temperature;BME280_humidity;BME280_pressure;Samples;Min_cycle;Max_cycle;Signal;HPM_P1;HPM_P2
2021/04/19 00:02:46;;;;;;;13.57;12.03;;;9.30;35.00;;;;;;10481582;28;20244;-69
2021/04/19 00:07:49;;;;;;;15.20;13.73;;;9.30;34.90;;;;;;10476780;28;20700;-69
2021/04/19 00:12:52;;;;;;;13.63;12.23;;;9.30;34.80;;;;;;10484220;28;20662;-69
2021/04/19 00:17:55;;;;;;;13.70;12.40;;;9.40;34.90;;;;;;10483717;28;20224;-69
2021/04/19 00:22:58;;;;;;;14.77;13.37;;;9.40;34.60;;;;;;10480853;28;20312;-69
2021/04/19 00:28:01;;;;;;;14.70;13.23;;;9.50;34.70;;;;;;10477098;28;20263;-69
2021/04/19 00:33:03;;;;;;;15.00;13.60;;;9.50;34.60;;;;;;10478088;28;20225;-69
2021/04/19 00:38:06;;;;;;;14.30;12.93;;;9.50;34.40;;;;;;10476073;28;20927;-69
2021/04/19 00:43:09;;;;;;;15.80;14.20;;;9.40;34.30;;;;;;10477634;28;20236;-69
2021/04/19 00:48:12;;;;;;;14.23;12.83;;;9.40;34.40;;;;;;10479826;28;20698;-69
2021/04/19 00:53:15;;;;;;;15.03;13.63;;;9.30;34.20;;;;;;10472927;28;20307;-69
2021/04/19 00:58:19;;;;;;;15.30;13.90;;;9.20;34.70;;;;;;10477734;28;20259;-69
2021/04/19 01:03:22;;;;;;;14.00;12.70;;;9.10;34.80;;;;;;10475059;28;20770;-69
2021/04/19 01:08:24;;;;;;;14.53;13.13;;;9.10;34.80;;;;;;10472343;28;20231;-68
2021/04/19 01:13:27;;;;;;;15.07;13.57;;;9.00;34.80;;;;;;10478652;28;20248;-68
2021/04/19 01:18:30;;;;;;;14.77;13.27;;;9.00;35.00;;;;;;10480086;28;20248;-71
2021/04/19 01:23:34;;;;;;;14.87;13.47;;;9.00;34.80;;;;;;10475023;28;20220;-71
2021/04/19 01:28:36;;;;;;;15.20;13.63;;;9.00;35.10;;;;;;10477159;28;20802;-71
2021/04/19 01:33:38;;;;;;;14.10;12.80;;;9.00;35.10;;;;;;10474792;28;20220;-71
2021/04/19 01:38:42;;;;;;;14.27;12.90;;;9.00;35.10;;;;;;10476600;28;20232;-71
2021/04/19 01:43:44;;;;;;;15.70;14.13;;;9.00;35.20;;;;;;10475503;28;20315;-70
2021/04/19 01:48:47;;;;;;;15.47;13.97;;;9.00;35.00;;;;;;10478686;28;20723;-70
2021/04/19 01:53:50;;;;;;;15.50;14.00;;;9.00;35.10;;;;;;10477242;28;20266;-70
2021/04/19 01:58:52;;;;;;;15.73;14.23;;;8.90;35.10;;;;;;10472579;28;20325;-71
2021/04/19 02:04:05;;;;;;;15.60;14.07;;;8.80;35.10;;;;;;10477871;28;20312;-71
2021/04/19 02:09:16;;;;;;;14.47;13.00;;;8.80;35.80;;;;;;10472358;28;20752;-70
2021/04/19 02:14:34;;;;;;;15.00;13.53;;;8.80;35.70;;;;;;10479543;28;20307;-70
2021/04/19 02:19:41;;;;;;;13.83;12.53;;;8.80;35.90;;;;;;10475682;28;20228;-71
2021/04/19 02:24:48;;;;;;;14.23;12.83;;;8.80;35.60;;;;;;10471713;28;20320;-70
2021/04/19 02:29:53;;;;;;;15.23;13.73;;;8.80;35.50;;;;;;10477128;28;20710;-70
2021/04/19 02:35:00;;;;;;;12.60;11.30;;;8.80;35.30;;;;;;10472651;28;20252;-71
2021/04/19 02:40:07;;;;;;;14.20;12.80;;;8.80;35.30;;;;;;10478559;28;20249;-70
2021/04/19 02:45:11;;;;;;;14.77;13.37;;;8.80;35.30;;;;;;10482172;28;20274;-71
2021/04/19 02:50:16;;;;;;;16.03;14.43;;;8.80;35.20;;;;;;10485133;28;20743;-69
2021/04/19 02:55:23;;;;;;;14.47;13.03;;;8.70;35.00;;;;;;10480803;28;20513;-69
2021/04/19 03:00:29;;;;;;;14.00;12.63;;;8.70;35.30;;;;;;10479411;28;20306;-70
2021/04/19 03:05:32;;;;;;;15.93;14.37;;;8.60;35.30;;;;;;10487176;28;20307;-70
2021/04/19 03:10:39;;;;;;;15.03;13.47;;;8.50;35.30;;;;;;10478820;28;20273;-71
2021/04/19 03:15:44;;;;;;;14.90;13.40;;;8.50;35.60;;;;;;10483844;28;20712;-68
2021/04/19 03:21:02;;;;;;;12.83;11.53;;;8.40;35.60;;;;;;10482864;28;20220;-70
2021/04/19 03:26:07;;;;;;;15.00;13.40;;;8.40;35.80;;;;;;10481299;28;20229;-70
2021/04/19 03:31:14;;;;;;;14.60;13.20;;;8.40;35.80;;;;;;10480044;28;20616;-68
2021/04/19 03:36:19;;;;;;;16.30;14.67;;;8.40;35.80;;;;;;10477388;28;20277;-69
2021/04/19 03:41:23;;;;;;;16.87;15.13;;;8.40;35.50;;;;;;10483234;28;20236;-71
2021/04/19 03:46:27;;;;;;;16.23;14.57;;;8.40;35.50;;;;;;10476807;28;20256;-70
2021/04/19 03:51:31;;;;;;;16.00;14.40;;;8.30;35.40;;;;;;10482519;28;20229;-70
2021/04/19 03:56:36;;;;;;;16.73;15.00;;;8.20;35.60;;;;;;10483203;28;20760;-70
2021/04/19 04:01:39;;;;;;;15.57;13.97;;;8.10;35.80;;;;;;10478963;28;20790;-69
2021/04/19 04:06:44;;;;;;;17.20;15.43;;;8.00;35.70;;;;;;10479733;28;20232;-71
2021/04/19 04:11:47;;;;;;;15.17;13.60;;;8.00;35.80;;;;;;10483926;28;20319;-71
2021/04/19 04:16:49;;;;;;;16.30;14.63;;;8.00;35.80;;;;;;10479603;28;20217;-70
2021/04/19 04:21:52;;;;;;;19.47;17.60;;;8.00;35.80;;;;;;10478059;28;20238;-71
2021/04/19 04:26:55;;;;;;;18.07;16.27;;;8.00;35.80;;;;;;10477575;28;20224;-70
2021/04/19 04:31:57;;;;;;;18.60;16.80;;;8.00;36.00;;;;;;10474935;28;20329;-70
2021/04/19 04:37:00;;;;;;;19.17;17.10;;;8.10;36.00;;;;;;10480607;28;20696;-70
2021/04/19 04:42:05;;;;;;;17.23;15.43;;;8.10;35.90;;;;;;10480968;28;20304;-70
2021/04/19 04:47:14;;;;;;;18.27;16.47;;;8.10;36.30;;;;;;10480083;28;20787;-71
2021/04/19 04:52:18;;;;;;;19.80;17.80;;;8.10;37.20;;;;;;10499436;22;20747;-74
2021/04/19 04:57:24;;;;;;;16.73;15.03;;;8.00;36.00;;;;;;10488106;28;20244;-74
2021/04/19 05:02:29;;;;;;;17.10;15.37;;;8.10;36.30;;;;;;10474451;28;20306;-74
2021/04/19 05:07:33;;;;;;;18.10;15.83;;;8.00;36.20;;;;;;10479561;28;20285;-74
2021/04/19 05:12:38;;;;;;;16.77;15.10;;;8.00;36.40;;;;;;10483398;28;20231;-74
2021/04/19 05:17:40;;;;;;;17.70;15.83;;;8.00;36.60;;;;;;10485676;28;20216;-74
2021/04/19 05:22:44;;;;;;;17.17;15.50;;;8.00;36.50;;;;;;10484637;28;20647;-74
2021/04/19 05:27:47;;;;;;;15.33;13.80;;;8.00;36.70;;;;;;10484551;28;20604;-74
2021/04/19 05:32:49;;;;;;;17.57;15.77;;;8.00;36.80;;;;;;10484032;28;20643;-74
2021/04/19 05:37:53;;;;;;;17.13;15.27;;;8.00;36.80;;;;;;10482555;28;20220;-74
2021/04/19 05:42:56;;;;;;;18.10;16.17;;;8.00;37.00;;;;;;10471280;28;20718;-74
2021/04/19 05:48:00;;;;;;;18.40;16.23;;;8.10;37.30;;;;;;10476405;28;20228;-74
2021/04/19 05:53:03;;;;;;;20.10;16.53;;;8.10;37.50;;;;;;10468678;28;20249;-74
2021/04/19 05:58:18;;;;;;;18.00;16.30;;;8.20;37.50;;;;;;10470781;28;20307;-74
2021/04/19 06:03:26;;;;;;;18.70;16.80;;;8.30;38.50;;;;;;10474625;28;20266;-74
2021/04/19 06:08:36;;;;;;;19.30;17.43;;;8.30;38.20;;;;;;10486729;28;20232;-74
2021/04/19 06:13:42;;;;;;;19.50;17.47;;;8.40;38.30;;;;;;10483231;28;20248;-74
2021/04/19 06:18:46;;;;;;;18.20;16.30;;;8.50;38.20;;;;;;10498003;28;20306;-74
2021/04/19 06:23:48;;;;;;;21.10;17.77;;;8.50;38.10;;;;;;10496524;28;20297;-74
2021/04/19 06:28:51;;;;;;;19.47;16.63;;;8.60;37.90;;;;;;10480143;28;20721;-74
2021/04/19 06:34:05;;;;;;;20.17;17.60;;;8.70;38.30;;;;;;10483895;28;20220;-74
2021/04/19 06:39:09;;;;;;;20.03;17.47;;;8.90;39.30;;;;;;10488241;28;20660;-74
2021/04/19 06:44:14;;;;;;;20.30;18.10;;;9.00;38.10;;;;;;10491551;28;20758;-74
2021/04/19 06:49:16;;;;;;;20.80;18.07;;;9.10;38.20;;;;;;10481557;28;20228;-74
2021/04/19 06:54:19;;;;;;;20.63;18.27;;;9.20;38.10;;;;;;10491035;28;20220;-75
2021/04/19 06:59:23;;;;;;;20.23;18.13;;;9.30;37.90;;;;;;10485242;28;20319;-77
2021/04/19 07:04:27;;;;;;;21.40;19.20;;;9.30;38.20;;;;;;10476746;28;20689;-72
2021/04/19 07:09:33;;;;;;;19.60;17.50;;;9.50;38.20;;;;;;10492316;28;20224;-73
2021/04/19 07:14:38;;;;;;;20.27;18.23;;;9.60;38.20;;;;;;10493989;28;20244;-76
2021/04/19 07:19:40;;;;;;;19.40;17.50;;;9.70;38.10;;;;;;10488266;28;20647;-77
2021/04/19 07:24:43;;;;;;;20.33;18.33;;;9.80;37.80;;;;;;10489788;28;20220;-76
2021/04/19 07:29:46;;;;;;;19.50;17.40;;;9.80;37.70;;;;;;10486118;28;20246;-75
2021/04/19 07:34:57;;;;;;;17.80;15.90;;;9.90;37.90;;;;;;10480565;28;20750;-77
2021/04/19 07:40:02;;;;;;;18.20;16.30;;;10.00;37.50;;;;;;10478207;28;20217;-74
2021/04/19 07:45:06;;;;;;;20.13;18.03;;;10.10;36.70;;;;;;10481109;28;20761;-74
2021/04/19 07:50:15;;;;;;;19.67;17.67;;;10.20;37.20;;;;;;10480015;28;20236;-74
2021/04/19 07:55:22;;;;;;;18.27;16.40;;;10.30;37.20;;;;;;10480075;28;20343;-74
2021/04/19 08:00:42;;;;;;;21.43;19.17;;;10.40;36.90;;;;;;10476576;28;20228;-74
2021/04/19 08:05:47;;;;;;;19.07;17.17;;;10.50;36.90;;;;;;10477278;28;20247;-79
2021/04/19 08:10:50;;;;;;;21.63;19.33;;;10.60;36.80;;;;;;10496662;22;20252;-72
2021/04/19 08:15:54;;;;;;;20.70;18.60;;;10.70;36.70;;;;;;10485682;28;20643;-71
2021/04/19 08:20:57;;;;;;;21.03;18.93;;;10.80;36.90;;;;;;10476580;28;20612;-71
2021/04/19 08:26:00;;;;;;;20.27;17.93;;;10.80;36.70;;;;;;10469384;28;20231;-72
2021/04/19 08:31:04;;;;;;;19.70;17.67;;;10.90;36.70;;;;;;10481040;28;20241;-72
2021/04/19 08:36:10;;;;;;;21.63;18.20;;;11.00;36.80;;;;;;10471583;28;20231;-72
2021/04/19 08:41:16;;;;;;;19.60;17.53;;;11.10;36.80;;;;;;10481994;28;20258;-71
2021/04/19 08:46:19;;;;;;;19.27;17.20;;;11.20;37.30;;;;;;10468772;28;20234;-71
2021/04/19 08:51:22;;;;;;;19.00;17.03;;;11.40;37.10;;;;;;10475123;28;20715;-72
2021/04/19 08:56:24;;;;;;;19.77;17.33;;;11.50;36.80;;;;;;10465955;28;20660;-72
2021/04/19 09:01:29;;;;;;;19.87;17.77;;;11.70;36.80;;;;;;10475260;28;20228;-71
2021/04/19 09:06:43;;;;;;;19.33;17.10;;;11.80;36.90;;;;;;10476552;28;20231;-72
2021/04/19 09:11:47;;;;;;;20.50;18.27;;;11.90;37.00;;;;;;10477758;28;20246;-72
2021/04/19 09:16:57;;;;;;;19.90;17.80;;;12.00;36.50;;;;;;10471175;28;20249;-70
2021/04/19 09:22:08;;;;;;;20.33;18.23;;;12.10;37.00;;;;;;10476400;28;20886;-73
2021/04/19 09:27:10;;;;;;;19.77;17.60;;;12.30;36.80;;;;;;10474923;28;20311;-72
2021/04/19 09:32:24;;;;;;;19.37;17.33;;;12.40;36.70;;;;;;10471336;28;20224;-71
2021/04/19 09:37:55;;;;;;;18.67;16.77;;;12.60;36.80;;;;;;10469287;28;20231;-71
2021/04/19 09:43:07;;;;;;;20.17;17.97;;;12.80;37.00;;;;;;10471826;28;20606;-74
2021/04/19 09:48:34;;;;;;;19.53;17.43;;;13.00;36.70;;;;;;10471329;28;20288;-74
2021/04/19 09:53:37;;;;;;;19.00;17.10;;;13.30;36.70;;;;;;10477404;28;20236;-70
2021/04/19 09:58:41;;;;;;;18.70;16.90;;;13.50;36.20;;;;;;10475431;28;20252;-70
2021/04/19 10:03:49;;;;;;;19.13;17.03;;;13.60;35.90;;;;;;10471631;28;20285;-75
2021/04/19 10:08:53;;;;;;;18.33;16.43;;;13.70;36.00;;;;;;10474756;28;20229;-73
2021/04/19 10:13:56;;;;;;;15.73;14.13;;;13.80;35.80;;;;;;10479890;28;20228;-74
2021/04/19 10:19:00;;;;;;;16.03;14.17;;;13.90;35.60;;;;;;10477220;28;20212;-74
2021/04/19 10:24:03;;;;;;;17.63;15.73;;;14.10;35.70;;;;;;10492937;28;20244;-72
2021/04/19 10:29:16;;;;;;;15.10;13.60;;;14.20;35.20;;;;;;10479308;28;20312;-72
2021/04/19 10:34:21;;;;;;;14.30;12.90;;;14.30;34.50;;;;;;10472575;28;20277;-70
2021/04/19 10:39:25;;;;;;;17.17;14.57;;;14.30;34.50;;;;;;10491241;28;20651;-73
2021/04/19 10:44:35;;;;;;;16.33;14.63;;;14.30;34.60;;;;;;10476281;28;20228;-71
2021/04/19 10:49:41;;;;;;;15.37;13.77;;;14.30;34.50;;;;;;10484387;28;20244;-71
2021/04/19 10:54:44;;;;;;;13.50;12.20;;;14.30;34.40;;;;;;10485242;28;20216;-72
2021/04/19 10:59:48;;;;;;;13.47;12.07;;;14.40;34.70;;;;;;10485993;28;20640;-72
2021/04/19 11:04:52;;;;;;;14.53;13.13;;;14.50;34.70;;;;;;10483058;28;20271;-70
2021/04/19 11:10:19;;;;;;;13.50;12.20;;;14.50;33.90;;;;;;10487650;28;20231;-71
2021/04/19 11:15:31;;;;;;;13.03;11.73;;;14.60;33.30;;;;;;10497609;28;20278;-71
2021/04/19 11:20:38;;;;;;;11.73;10.53;;;14.70;32.50;;;;;;10490380;28;20239;-71
2021/04/19 11:25:47;;;;;;;11.83;10.63;;;14.70;33.00;;;;;;10478826;28;20232;-70
2021/04/19 11:30:52;;;;;;;11.90;10.70;;;14.80;33.60;;;;;;10464735;28;20237;-71
2021/04/19 11:36:00;;;;;;;13.30;11.90;;;15.00;33.80;;;;;;10454811;28;20799;-73
2021/04/19 11:41:05;;;;;;;13.13;11.83;;;15.20;32.70;;;;;;10474364;28;20685;-71
2021/04/19 11:46:08;;;;;;;12.77;11.53;;;15.30;32.40;;;;;;10481284;28;20248;-72
2021/04/19 11:51:15;;;;;;;15.37;13.77;;;15.40;32.90;;;;;;10487462;28;20232;-70
2021/04/19 11:56:18;;;;;;;14.93;13.43;;;15.40;32.50;;;;;;10470850;28;20270;-74
2021/04/19 12:01:21;;;;;;;14.00;12.60;;;15.40;32.50;;;;;;10479808;28;21374;-74
2021/04/19 12:06:26;;;;;;;12.53;11.23;;;15.30;32.40;;;;;;10476817;28;20656;-72
2021/04/19 12:11:28;;;;;;;12.87;11.57;;;15.20;32.30;;;;;;10472196;28;20246;-76
2021/04/19 12:16:31;;;;;;;11.73;10.53;;;15.00;32.60;;;;;;10479950;28;20232;-72
2021/04/19 12:21:35;;;;;;;11.47;10.27;;;14.80;32.80;;;;;;10495832;28;20230;-72
2021/04/19 12:26:37;;;;;;;11.20;10.20;;;14.70;32.90;;;;;;10497914;28;20262;-74
2021/04/19 12:31:46;;;;;;;10.47;9.47;;;14.60;33.00;;;;;;10494158;28;20228;-72
2021/04/19 12:36:52;;;;;;;10.90;9.90;;;14.50;32.70;;;;;;10462710;28;20712;-72
2021/04/19 12:41:54;;;;;;;11.50;10.40;;;14.40;32.60;;;;;;10481071;28;20251;-72
2021/04/19 12:46:57;;;;;;;12.30;11.10;;;14.30;32.80;;;;;;10459418;28;20715;-72
2021/04/19 12:52:00;;;;;;;11.70;10.57;;;14.30;33.10;;;;;;10467391;28;20278;-73
2021/04/19 12:57:03;;;;;;;10.93;9.93;;;14.30;33.10;;;;;;10469872;28;20319;-73
2021/04/19 13:02:06;;;;;;;9.60;8.70;;;14.40;33.00;;;;;;10480347;28;20775;-72
2021/04/19 13:07:09;;;;;;;8.57;7.77;;;14.50;33.30;;;;;;10459719;28;20233;-73
2021/04/19 13:12:12;;;;;;;7.67;6.97;;;14.60;32.30;;;;;;10487545;28;20595;-74
2021/04/19 13:17:14;;;;;;;7.47;6.77;;;14.70;32.60;;;;;;10493948;28;20282;-74
2021/04/19 13:22:18;;;;;;;7.00;6.40;;;14.90;32.20;;;;;;10492225;28;20232;-74
2021/04/19 13:27:20;;;;;;;6.90;6.23;;;15.00;32.10;;;;;;10452198;28;20294;-73
2021/04/19 13:32:22;;;;;;;5.87;5.37;;;15.00;32.10;;;;;;10473370;28;20320;-72
2021/04/19 13:37:26;;;;;;;6.63;6.03;;;15.00;32.10;;;;;;10481279;28;20224;-74
2021/04/19 13:42:28;;;;;;;5.70;5.20;;;15.00;32.10;;;;;;10477428;28;20226;-74
2021/04/19 13:47:30;;;;;;;5.90;5.40;;;15.00;32.10;;;;;;10463987;28;20312;-74
2021/04/19 13:52:34;;;;;;;5.40;5.00;;;15.00;32.10;;;;;;10475687;28;20991;-74
2021/04/19 13:57:38;;;;;;;6.23;5.73;;;15.00;32.10;;;;;;10460849;28;20308;-73
2021/04/19 14:02:41;;;;;;;5.97;5.47;;;15.00;32.20;;;;;;10464897;28;20232;-74
2021/04/19 14:07:44;;;;;;;6.20;5.60;;;15.10;32.20;;;;;;10476133;28;20302;-74
2021/04/19 14:12:50;;;;;;;4.73;4.33;;;15.10;31.90;;;;;;10476665;22;20217;-71
2021/04/19 14:17:52;;;;;;;4.20;3.90;;;15.10;31.60;;;;;;10461262;28;20319;-72
2021/04/19 14:22:56;;;;;;;4.20;3.90;;;15.10;31.70;;;;;;10459433;28;20604;-72
2021/04/19 14:27:58;;;;;;;4.53;4.10;;;15.10;31.40;;;;;;10459885;28;20728;-71
2021/04/19 14:33:01;;;;;;;5.17;4.67;;;15.10;32.20;;;;;;10447025;28;20768;-71
2021/04/19 14:38:04;;;;;;;4.63;4.30;;;15.10;32.20;;;;;;10427974;22;20223;-70
2021/04/19 14:43:07;;;;;;;4.53;4.10;;;15.10;32.20;;;;;;10392633;28;20576;-69
2021/04/19 14:48:11;;;;;;;3.80;3.50;;;15.10;32.20;;;;;;10363596;28;20326;-70
2021/04/19 14:53:14;;;;;;;3.47;3.17;;;15.00;32.10;;;;;;10322033;28;20227;-70
2021/04/19 14:58:16;;;;;;;5.03;3.60;;;14.90;32.00;;;;;;10346302;28;20314;-70
2021/04/19 15:03:21;;;;;;;3.40;2.93;;;14.80;31.90;;;;;;10321445;28;20586;-69
2021/04/19 15:08:24;;;;;;;3.10;2.80;;;14.70;32.50;;;;;;10324970;28;20234;-69
2021/04/19 15:13:26;;;;;;;2.90;2.70;;;14.60;32.70;;;;;;10336717;28;20314;-69
2021/04/19 15:18:30;;;;;;;2.50;2.30;;;14.40;32.90;;;;;;10346416;28;20255;-70
2021/04/19 15:23:34;;;;;;;2.70;2.50;;;14.20;33.10;;;;;;10335767;28;20729;-70
2021/04/19 15:28:36;;;;;;;2.27;2.17;;;14.20;33.80;;;;;;10331097;28;20227;-70
2021/04/19 15:33:38;;;;;;;2.30;2.10;;;14.10;33.60;;;;;;10331711;28;20615;-70
2021/04/19 15:38:43;;;;;;;2.50;2.20;;;14.10;33.90;;;;;;10341965;28;20714;-70
2021/04/19 15:43:46;;;;;;;2.73;2.53;;;14.10;34.30;;;;;;10358646;28;20626;-70
2021/04/19 15:48:49;;;;;;;3.20;2.90;;;14.10;33.90;;;;;;10347211;28;20321;-70
2021/04/19 15:53:54;;;;;;;2.50;2.30;;;14.20;34.10;;;;;;10351778;28;20215;-70
2021/04/19 15:58:56;;;;;;;2.50;2.30;;;14.20;34.30;;;;;;10333259;28;20230;-70
2021/04/19 16:03:59;;;;;;;2.80;2.60;;;14.20;34.30;;;;;;10346870;28;20222;-70
2021/04/19 16:09:02;;;;;;;3.83;3.53;;;14.20;34.40;;;;;;10342518;28;20227;-71
2021/04/19 16:14:05;;;;;;;3.93;3.63;;;14.30;34.80;;;;;;10343731;28;20238;-71
2021/04/19 16:19:07;;;;;;;3.50;3.20;;;14.20;34.30;;;;;;10341654;28;20227;-71
2021/04/19 16:24:11;;;;;;;3.77;3.37;;;14.30;34.10;;;;;;10349336;28;20322;-70
2021/04/19 16:29:13;;;;;;;4.30;4.00;;;14.20;34.10;;;;;;10345185;28;20247;-71
2021/04/19 16:34:15;;;;;;;4.10;3.70;;;14.20;34.30;;;;;;10340152;28;20313;-71
2021/04/19 16:39:19;;;;;;;3.97;3.67;;;14.20;34.40;;;;;;10344025;28;20645;-71
2021/04/19 16:44:21;;;;;;;4.30;3.90;;;14.20;34.20;;;;;;10317763;28;20313;-71
2021/04/19 16:49:23;;;;;;;5.20;4.80;;;14.30;34.00;;;;;;10345600;28;20742;-71
2021/04/19 16:54:26;;;;;;;4.57;4.17;;;14.30;34.20;;;;;;10336373;28;20310;-71
2021/04/19 16:59:29;;;;;;;3.93;3.63;;;14.30;34.40;;;;;;10346196;28;20330;-70
2021/04/19 17:04:31;;;;;;;4.53;4.17;;;14.30;34.50;;;;;;10331197;28;20659;-70
2021/04/19 17:09:35;;;;;;;5.27;4.77;;;14.30;34.30;;;;;;10326488;28;20284;-71
2021/04/19 17:14:37;;;;;;;5.50;5.00;;;14.20;34.50;;;;;;10339641;28;20234;-71
2021/04/19 17:19:39;;;;;;;5.50;5.03;;;14.20;34.50;;;;;;10335532;28;20317;-71
2021/04/19 17:24:42;;;;;;;5.70;5.20;;;14.20;34.70;;;;;;10341289;28;20305;-71
2021/04/19 17:29:45;;;;;;;6.00;5.50;;;14.10;35.00;;;;;;10329692;28;20306;-71
2021/04/19 17:34:49;;;;;;;5.80;5.30;;;14.10;35.00;;;;;;10307635;28;20310;-71
2021/04/19 17:39:52;;;;;;;5.90;5.40;;;14.00;34.90;;;;;;10324966;28;20700;-71
2021/04/19 17:44:54;;;;;;;5.90;5.40;;;13.90;35.20;;;;;;10320322;28;20246;-71
2021/04/19 17:49:57;;;;;;;6.10;5.60;;;13.90;35.10;;;;;;10335988;28;20227;-71
2021/04/19 17:55:00;;;;;;;6.20;5.60;;;13.90;35.10;;;;;;10349575;28;20285;-71
2021/04/19 18:00:03;;;;;;;5.73;5.23;;;13.90;35.30;;;;;;10350684;28;20222;-71
2021/04/19 18:05:06;;;;;;;5.63;5.13;;;13.90;35.00;;;;;;10338069;28;20307;-71
2021/04/19 18:10:13;;;;;;;5.47;5.03;;;13.80;35.00;;;;;;10354975;28;20245;-71
2021/04/19 18:15:29;;;;;;;5.70;5.30;;;13.80;35.50;;;;;;10362909;28;20225;-70
2021/04/19 18:20:31;;;;;;;6.00;5.40;;;13.80;35.10;;;;;;10351380;28;20231;-71
2021/04/19 18:25:34;;;;;;;6.07;5.57;;;13.80;35.10;;;;;;10333764;28;20242;-71
2021/04/19 18:30:37;;;;;;;6.57;5.97;;;13.70;35.10;;;;;;10308964;28;20867;-71
2021/04/19 18:35:39;;;;;;;5.70;5.30;;;13.60;35.00;;;;;;10315035;28;20230;-72
2021/04/19 18:40:42;;;;;;;5.83;5.00;;;13.50;35.00;;;;;;10357581;28;20248;-72
2021/04/19 18:45:44;;;;;;;5.70;5.20;;;13.40;35.40;;;;;;10361313;28;20750;-72
2021/04/19 18:50:47;;;;;;;6.00;5.50;;;13.40;35.40;;;;;;10357383;28;20226;-72
2021/04/19 18:55:50;;;;;;;6.03;5.50;;;13.40;36.20;;;;;;10343905;28;20301;-72
2021/04/19 19:00:52;;;;;;;5.80;5.30;;;13.30;35.60;;;;;;10353894;28;20288;-72
2021/04/19 19:05:54;;;;;;;6.00;5.50;;;13.30;35.50;;;;;;10353146;28;20963;-72
2021/04/19 19:10:58;;;;;;;6.30;5.80;;;13.20;35.50;;;;;;10364434;28;20307;-72
2021/04/19 19:16:00;;;;;;;6.50;6.00;;;13.20;35.60;;;;;;10346741;28;20214;-72
2021/04/19 19:21:02;;;;;;;5.03;4.63;;;13.20;35.50;;;;;;10354508;28;20222;-72
2021/04/19 19:26:06;;;;;;;6.23;5.73;;;13.10;35.50;;;;;;10357988;28;20250;-73
2021/04/19 19:31:09;;;;;;;5.70;5.20;;;13.10;36.00;;;;;;10359828;28;20814;-73
2021/04/19 19:36:12;;;;;;;7.67;7.07;;;13.10;35.90;;;;;;10357990;28;20229;-72
2021/04/19 19:41:15;;;;;;;6.30;5.80;;;13.00;36.60;;;;;;10356536;28;20285;-73
2021/04/19 19:46:17;;;;;;;6.43;5.93;;;12.90;36.10;;;;;;10350696;28;20399;-73
2021/04/19 19:51:22;;;;;;;5.80;5.30;;;12.90;36.00;;;;;;10352932;28;20227;-72
2021/04/19 19:56:25;;;;;;;6.00;5.50;;;12.80;36.20;;;;;;10350621;28;20239;-73
2021/04/19 20:01:27;;;;;;;6.90;6.30;;;12.70;36.60;;;;;;10345942;28;20309;-73
2021/04/19 20:06:29;;;;;;;6.23;5.73;;;12.80;36.40;;;;;;10350339;28;20313;-73
2021/04/19 20:11:33;;;;;;;6.80;6.20;;;12.80;36.40;;;;;;10350878;28;20305;-73
2021/04/19 20:16:35;;;;;;;5.63;5.13;;;12.80;36.80;;;;;;10346104;28;20322;-73
2021/04/19 20:21:38;;;;;;;5.57;5.07;;;12.80;36.60;;;;;;10331211;28;20227;-73
2021/04/19 20:26:41;;;;;;;6.63;6.03;;;12.70;36.50;;;;;;10332623;28;20340;-73
2021/04/19 20:31:43;;;;;;;7.70;6.97;;;12.80;37.00;;;;;;10302104;28;20247;-73
2021/04/19 20:36:45;;;;;;;7.53;6.93;;;12.80;36.70;;;;;;10326501;28;20309;-73
2021/04/19 20:41:49;;;;;;;6.80;6.30;;;12.70;36.80;;;;;;10337819;28;20235;-73
2021/04/19 20:46:51;;;;;;;6.70;6.10;;;12.70;37.10;;;;;;10319330;28;20227;-73
2021/04/19 20:51:54;;;;;;;7.47;6.77;;;12.60;37.00;;;;;;10333756;28;20235;-73
2021/04/19 20:56:58;;;;;;;7.33;6.63;;;12.70;37.00;;;;;;10340491;28;20317;-72
2021/04/19 21:02:00;;;;;;;7.53;6.93;;;12.60;37.20;;;;;;10352555;28;20305;-73
2021/04/19 21:07:03;;;;;;;7.20;6.60;;;12.70;37.00;;;;;;10334259;28;20231;-72
2021/04/19 21:12:07;;;;;;;7.73;7.03;;;12.70;37.20;;;;;;10338737;28;20261;-72
2021/04/19 21:17:10;;;;;;;7.57;6.87;;;12.70;37.60;;;;;;10333150;28;20265;-72
2021/04/19 21:22:12;;;;;;;7.33;6.63;;;12.70;37.30;;;;;;10323968;28;20230;-74
2021/04/19 21:27:15;;;;;;;7.17;6.57;;;12.60;37.20;;;;;;10340743;28;20593;-74
2021/04/19 21:32:18;;;;;;;6.93;6.33;;;12.70;37.40;;;;;;10332762;28;20227;-74
2021/04/19 21:37:20;;;;;;;7.17;6.57;;;12.60;37.00;;;;;;10318179;28;20310;-74
2021/04/19 21:42:23;;;;;;;7.10;6.50;;;12.60;37.10;;;;;;10339739;28;20254;-74
2021/04/19 21:47:25;;;;;;;7.47;6.77;;;12.60;37.30;;;;;;10310509;28;20231;-74
2021/04/19 21:52:27;;;;;;;8.23;7.53;;;12.50;37.10;;;;;;10327293;28;20226;-74
2021/04/19 21:57:31;;;;;;;7.53;6.93;;;12.50;37.10;;;;;;10331009;28;20227;-73
2021/04/19 22:02:33;;;;;;;7.43;6.83;;;12.50;37.40;;;;;;10326384;28;20309;-72
2021/04/19 22:07:35;;;;;;;6.97;6.43;;;12.40;37.20;;;;;;10343704;28;20226;-73
2021/04/19 22:12:39;;;;;;;8.33;7.63;;;12.40;37.40;;;;;;10326250;28;20310;-73
2021/04/19 22:17:41;;;;;;;8.33;7.63;;;12.40;37.70;;;;;;10336902;28;20313;-73
2021/04/19 22:22:45;;;;;;;6.30;5.80;;;12.40;37.60;;;;;;10344307;28;20318;-72
2021/04/19 22:27:48;;;;;;;7.47;6.87;;;12.30;37.60;;;;;;10329749;28;20312;-73
2021/04/19 22:32:50;;;;;;;8.63;7.87;;;12.30;37.90;;;;;;10317571;28;20307;-73
2021/04/19 22:37:53;;;;;;;7.93;7.23;;;12.30;37.70;;;;;;10347246;28;20234;-72
2021/04/19 22:42:56;;;;;;;7.30;6.70;;;12.20;37.70;;;;;;10304863;28;20255;-72
2021/04/19 22:47:59;;;;;;;8.87;8.10;;;12.20;37.90;;;;;;10325738;28;20231;-72
2021/04/19 22:53:01;;;;;;;8.53;7.73;;;12.20;37.80;;;;;;10330010;28;20734;-73
2021/04/19 22:58:05;;;;;;;8.13;7.43;;;12.20;37.90;;;;;;10342282;28;20262;-72
2021/04/19 23:03:07;;;;;;;9.10;8.30;;;12.20;38.20;;;;;;10329200;28;20398;-73
2021/04/19 23:08:09;;;;;;;8.77;7.97;;;12.20;38.00;;;;;;10330776;28;20231;-73
2021/04/19 23:13:12;;;;;;;8.40;7.70;;;12.20;37.90;;;;;;10353579;28;20317;-73
2021/04/19 23:18:14;;;;;;;9.27;8.47;;;12.20;38.10;;;;;;10328607;28;20710;-71
2021/04/19 23:23:16;;;;;;;7.67;6.97;;;12.20;37.90;;;;;;10353891;28;20249;-71
2021/04/19 23:28:19;;;;;;;7.90;7.20;;;12.20;38.00;;;;;;10325197;28;20238;-71
2021/04/19 23:33:22;;;;;;;8.10;7.40;;;12.20;38.20;;;;;;10343354;28;20239;-71
2021/04/19 23:38:24;;;;;;;9.20;8.40;;;12.20;38.00;;;;;;10334871;28;20318;-71
2021/04/19 23:43:27;;;;;;;8.90;8.20;;;12.20;38.10;;;;;;10340354;28;20597;-71
2021/04/19 23:48:29;;;;;;;9.10;8.30;;;12.20;38.20;;;;;;10341298;28;20297;-71
2021/04/19 23:53:32;;;;;;;8.60;7.80;;;12.30;38.00;;;;;;10314713;28;20313;-73
2021/04/19 23:58:35;;;;;;;9.33;8.53;;;12.20;38.00;;;;;;10348141;28;20254;-73
